Fuding, China
Current Conditions -  °F | °C
As of 2:00 AM on Friday 31 Oct 2014 (Local Time) from ZSFZ Reporting Station
Few Clouds Few Clouds  
Wind Chill: 72°   Ceiling: Unl
Heat Index: 72°   Visibility: 4mi
Dew Point: 66°   Wind: 7mph
Humidity: 83%   Direction: 360°N
Pressure: 30"   Gusts: NA
Location:  27.33°N, 120.2°E
Report Text: ZSFZ 301800Z 36003MPS 330V030 7000 FEW040 22/19 Q1016 NOSIG
Loading
Personal Weather Stations






























Interactive Weather Map
Tropical Storm Tracking
New forecast layout! Learn more

10-Day Weather Forecast

Advertisements
Track Severe Weather on mobile